Time;durP1;ratioP1;P1;durP2;ratioP2;P2;SDS_P1;SDS_P2;PMS_P1;PMS_P2;Temp;Humidity;BMP_temperature;BMP_pressure;BME280_temperature;BME280_humidity;BME280_pressure;Samples;Min_cycle;Max_cycle;Signal;HPM_P1;HPM_P2
2021/11/02 00:02:12;;;;;;;6.20;1.65;;;6.50;99.90;;;4.72;99.65;99618.13;2565236;30;137505;-40
2021/11/02 00:04:40;;;;;;;5.38;1.73;;;6.50;99.90;;;4.71;99.66;99607.53;2568019;30;138129;-40
2021/11/02 00:07:07;;;;;;;;;;;6.50;99.90;;;4.71;99.76;99611.03;2568286;30;136745;-40
2021/11/02 00:09:41;;;;;;;3.65;1.52;;;6.50;99.90;;;4.75;99.75;99608.78;2564542;30;136648;-40
2021/11/02 00:12:11;;;;;;;3.90;1.40;;;6.40;99.90;;;4.79;100.00;99610.03;2567374;30;136643;-40
2021/11/02 00:14:38;;;;;;;4.40;1.70;;;6.50;99.90;;;4.84;100.00;99614.84;2567333;30;137954;-40
2021/11/02 00:17:21;;;;;;;4.07;1.52;;;6.50;99.90;;;4.86;100.00;99616.28;2566857;30;138572;-40
2021/11/02 00:19:52;;;;;;;4.55;1.50;;;6.60;99.90;;;4.88;100.00;99611.50;2568066;30;139110;-39
2021/11/02 00:22:21;;;;;;;4.00;1.70;;;6.60;99.90;;;4.92;100.00;99616.53;2569470;30;136822;-40
2021/11/02 00:27:25;;;;;;;5.28;2.30;;;6.60;99.90;;;4.96;100.00;99624.00;2568516;30;137649;-40
2021/11/02 00:29:55;;;;;;;5.28;1.63;;;6.70;99.90;;;4.97;100.00;99617.56;2568297;30;138348;-40
2021/11/02 00:32:24;;;;;;;7.10;1.75;;;6.70;99.90;;;4.96;100.00;99624.00;2569108;30;137101;-39
2021/11/02 00:34:52;;;;;;;4.13;1.50;;;6.70;99.90;;;4.94;100.00;99617.97;2566712;30;138238;-40
2021/11/02 00:37:20;;;;;;;4.10;1.60;;;6.70;99.90;;;4.91;100.00;99615.69;2568801;30;137488;-40
2021/11/02 00:39:47;;;;;;;10.20;1.77;;;6.70;99.90;;;4.91;100.00;99615.69;2567173;30;140752;-40
2021/11/02 00:42:15;;;;;;;6.07;1.70;;;6.60;99.90;;;4.89;100.00;99615.06;2567934;30;137513;-40
2021/11/02 00:44:44;;;;;;;5.40;1.73;;;6.60;99.90;;;4.90;100.00;99614.00;2567029;30;138617;-40
2021/11/02 00:47:17;;;;;;;3.15;1.50;;;6.60;99.90;;;4.88;100.00;99607.97;2567941;30;136853;-40
2021/11/02 00:49:45;;;;;;;3.78;1.38;;;6.60;99.90;;;4.81;100.00;99605.25;2565807;30;138345;-39
2021/11/02 00:52:13;;;;;;;6.53;1.60;;;6.60;99.90;;;4.82;100.00;99614.22;2568076;30;137360;-40
2021/11/02 00:54:40;;;;;;;3.80;1.42;;;6.60;99.90;;;4.79;100.00;99617.31;2568387;30;137148;-40
2021/11/02 00:57:08;;;;;;;5.10;1.50;;;6.60;99.90;;;4.75;100.00;99615.00;2567117;30;136825;-40
2021/11/02 00:59:36;;;;;;;5.65;1.48;;;6.50;99.90;;;4.70;100.00;99614.78;2567923;30;138358;-40
2021/11/02 01:02:07;;;;;;;8.65;1.67;;;6.50;99.90;;;4.64;100.00;99609.34;2567518;30;138572;-40
2021/11/02 01:04:36;;;;;;;4.53;1.55;;;6.40;99.90;;;4.57;100.00;99614.75;2568192;30;139362;-40
2021/11/02 01:07:05;;;;;;;3.15;1.20;;;6.30;99.90;;;4.52;100.00;99609.13;2567775;30;137197;-40
2021/11/02 01:09:33;;;;;;;5.50;1.55;;;6.30;99.90;;;4.46;100.00;99611.59;2568581;30;137469;-40
2021/11/02 01:12:03;;;;;;;6.20;1.40;;;6.20;99.90;;;4.39;100.00;99610.75;2566255;30;138018;-40
2021/11/02 01:14:32;;;;;;;3.90;1.40;;;6.20;99.90;;;4.36;100.00;99608.44;2567653;30;139697;-40
2021/11/02 01:17:04;;;;;;;3.92;1.48;;;6.10;99.90;;;4.33;100.00;99603.44;2565198;30;136905;-40
2021/11/02 01:19:32;;;;;;;3.58;1.40;;;6.10;99.90;;;4.27;100.00;99610.47;2567874;30;137816;-39
2021/11/02 01:22:00;;;;;;;3.95;1.60;;;6.00;99.90;;;4.24;100.00;99604.63;2568005;30;138984;-40
2021/11/02 01:24:29;;;;;;;4.65;1.40;;;6.00;99.90;;;4.18;100.00;99607.13;2567695;30;139675;-40
2021/11/02 01:26:57;;;;;;;2.83;1.50;;;6.00;99.90;;;4.13;100.00;99606.88;2568557;30;136919;-40
2021/11/02 01:29:27;;;;;;;5.07;1.50;;;5.90;99.90;;;4.06;100.00;99606.03;2567666;30;138413;-39
2021/11/02 01:31:57;;;;;;;4.07;1.50;;;5.90;99.90;;;4.05;100.00;99617.00;2567842;30;137618;-40
2021/11/02 01:34:32;;;;;;;4.72;1.70;;;5.80;99.90;;;3.99;100.00;99608.69;2566280;30;139137;-40
2021/11/02 01:37:00;;;;;;;5.97;1.80;;;5.80;99.90;;;3.99;100.00;99607.88;2567163;30;138240;-40
2021/11/02 01:39:28;;;;;;;3.33;1.40;;;5.70;99.90;;;3.94;100.00;99603.06;2567417;30;138311;-39
2021/11/02 01:42:00;;;;;;;4.70;2.05;;;5.70;99.90;;;3.93;100.00;99609.47;2568559;30;138447;-40
2021/11/02 01:44:30;;;;;;;6.97;2.00;;;5.70;99.90;;;3.94;100.00;99616.53;2566741;30;139552;-40
2021/11/02 01:47:00;;;;;;;4.00;1.45;;;5.70;99.90;;;3.93;100.00;99619.44;2568438;30;138287;-40
2021/11/02 01:49:35;;;;;;;4.15;1.70;;;5.70;99.90;;;3.89;100.00;99614.44;2568509;30;140342;-39
2021/11/02 01:52:04;;;;;;;5.00;1.88;;;5.70;99.90;;;3.90;100.00;99612.59;2567442;30;138914;-40
2021/11/02 01:54:34;;;;;;;8.02;1.95;;;5.70;99.90;;;3.89;100.00;99603.63;2567083;30;141077;-40
2021/11/02 01:57:02;;;;;;;3.95;1.90;;;5.70;99.90;;;3.89;100.00;99600.94;2566046;30;138855;-39
2021/11/02 01:59:34;;;;;;;4.18;1.48;;;5.70;99.90;;;3.89;100.00;99603.63;2567511;30;138505;-39
2021/11/02 02:02:32;;;;;;;6.63;1.70;;;5.70;99.90;;;3.87;100.00;99611.09;2567846;30;137460;-39
2021/11/02 02:05:37;;;;;;;5.65;1.67;;;5.60;99.90;;;3.83;100.00;99609.84;2567952;30;139706;-40
2021/11/02 02:08:22;;;;;;;5.82;1.80;;;5.60;99.90;;;3.77;100.00;99612.47;2566333;30;139812;-40
2021/11/02 02:10:58;;;;;;;3.33;1.50;;;5.60;99.90;;;3.71;100.00;99606.00;2567440;30;139715;-40
2021/11/02 02:13:41;;;;;;;4.60;1.90;;;5.50;99.90;;;3.66;100.00;99609.31;2567849;30;137425;-39
2021/11/02 02:16:40;;;;;;;2.28;1.20;;;5.50;99.90;;;3.56;100.00;99603.41;2567553;30;137803;-40
2021/11/02 02:19:10;;;;;;;4.88;1.60;;;5.40;99.90;;;3.49;100.00;99608.78;2566937;30;137789;-40
2021/11/02 02:21:55;;;;;;;4.53;1.85;;;5.30;99.90;;;3.43;100.00;99612.22;2568331;30;139681;-39
2021/11/02 02:24:55;;;;;;;6.10;1.88;;;5.30;99.90;;;3.40;100.00;99607.25;2568534;30;137015;-40
2021/11/02 02:27:44;;;;;;;5.32;1.50;;;5.20;99.90;;;3.36;100.00;99600.56;2567312;30;139808;-39
2021/11/02 02:30:17;;;;;;;7.20;2.00;;;5.20;99.90;;;3.35;100.00;99597.06;2566914;30;139572;-39
2021/11/02 02:32:49;;;;;;;4.45;1.60;;;5.20;99.90;;;3.33;100.00;99603.66;2566941;30;138394;-40
2021/11/02 02:35:20;;;;;;;4.00;1.40;;;5.10;99.90;;;3.29;100.00;99604.06;2566466;30;138794;-39
2021/11/02 02:37:51;;;;;;;3.97;1.45;;;5.10;99.90;;;3.29;100.00;99598.66;2568296;30;140062;-39
2021/11/02 02:40:21;;;;;;;3.58;1.55;;;5.10;99.90;;;3.25;100.00;99585.75;2566582;30;139550;-40
2021/11/02 02:42:51;;;;;;;5.25;1.77;;;5.10;99.90;;;3.28;100.00;99597.00;2565701;30;141819;-40
2021/11/02 02:45:21;;;;;;;3.75;1.63;;;5.10;99.90;;;3.27;100.00;99598.03;2566637;30;138132;-39
2021/11/02 02:47:51;;;;;;;5.60;1.70;;;5.10;99.90;;;3.31;100.00;99595.75;2567434;30;139254;-40
2021/11/02 02:50:21;;;;;;;7.00;1.70;;;5.10;99.90;;;3.38;100.00;99596.66;2567444;30;137610;-40
2021/11/02 02:52:53;;;;;;;3.08;1.55;;;5.10;99.90;;;3.41;100.00;99590.03;2566981;30;139689;-39
2021/11/02 02:55:22;;;;;;;5.10;2.00;;;5.20;99.90;;;3.38;100.00;99585.88;2575501;30;143257;-38
2021/11/02 02:57:56;;;;;;;5.90;1.95;;;5.20;99.90;;;3.47;100.00;99589.28;2568946;30;139596;-38
2021/11/02 03:00:25;;;;;;;4.53;1.70;;;5.30;99.90;;;3.48;100.00;99596.31;2565990;30;138891;-38
2021/11/02 03:02:53;;;;;;;5.03;1.70;;;5.30;99.90;;;3.51;100.00;99592.38;2571839;30;140598;-38
2021/11/02 03:05:25;;;;;;;5.20;1.90;;;5.30;99.90;;;3.49;100.00;99598.00;2566941;30;138344;-38
2021/11/02 03:08:00;;;;;;;3.70;1.95;;;5.30;99.90;;;3.50;100.00;99604.19;2568940;30;139996;-38
2021/11/02 03:10:27;;;;;;;;;;;5.30;99.90;;;3.52;100.00;99594.91;2570374;30;137137;-38
2021/11/02 03:13:07;;;;;;;3.17;1.67;;;5.30;99.90;;;3.52;100.00;99603.00;2570837;30;140395;-38
2021/11/02 03:15:54;;;;;;;;;;;5.30;99.90;;;3.53;100.00;99609.19;2566426;30;139485;-38
2021/11/02 03:55:07;;;;;;;5.45;1.73;;;4.80;99.90;;;2.99;100.00;99587.19;2566517;30;138742;-37
2021/11/02 03:57:48;;;;;;;6.00;2.10;;;4.80;99.90;;;3.06;100.00;99598.03;2569310;30;139875;-38
2021/11/02 04:27:03;;;;;;;3.55;1.50;;;5.30;99.90;;;3.75;100.00;99601.91;2568763;30;138284;-38
2021/11/02 05:55:22;;;;;;;5.75;2.08;;;5.50;99.90;;;3.78;100.00;99562.88;2570022;30;139005;-38
2021/11/02 05:58:10;;;;;;;5.90;1.90;;;5.50;99.90;;;3.84;100.00;99559.38;2570043;30;139512;-38
2021/11/02 06:01:26;;;;;;;5.88;2.00;;;5.60;99.90;;;3.92;100.00;99566.50;2571064;30;138555;-38
2021/11/02 06:06:41;;;;;;;4.13;2.28;;;5.70;99.90;;;3.96;100.00;99575.84;2568140;30;138175;-38
2021/11/02 06:09:25;;;;;;;4.35;2.13;;;5.70;99.90;;;3.96;100.00;99573.16;2569816;30;138012;-38
2021/11/02 06:29:05;;;;;;;4.68;1.92;;;5.70;99.90;;;3.95;100.00;99558.84;2569765;30;138322;-38
2021/11/02 06:31:35;;;;;;;4.50;1.88;;;5.70;99.90;;;3.97;100.00;99555.91;2571720;30;137620;-38
2021/11/02 06:53:41;;;;;;;4.10;2.30;;;6.00;99.90;;;4.41;100.00;99587.06;2569398;30;138810;-38
2021/11/02 06:59:43;;;;;;;6.15;2.30;;;6.20;99.90;;;4.65;100.00;99590.25;2570467;30;138360;-38
2021/11/02 07:17:34;;;;;;;6.47;2.38;;;6.50;99.90;;;4.97;100.00;99603.22;2568875;30;137534;-38
2021/11/02 07:20:30;;;;;;;6.57;2.65;;;6.60;99.90;;;5.01;100.00;99601.75;2568891;30;138421;-38
2021/11/02 07:28:48;;;;;;;9.30;2.72;;;6.70;99.90;;;5.14;100.00;99607.16;2569056;30;137811;-38
2021/11/02 08:47:06;;;;;;;6.28;1.83;;;8.50;99.90;;;7.11;95.60;99621.84;2569619;30;138926;-38
2021/11/02 08:49:40;;;;;;;8.02;1.63;;;8.60;99.90;;;7.14;94.07;99627.69;2568502;30;137159;-38
2021/11/02 08:52:07;;;;;;;5.15;1.92;;;8.60;99.90;;;7.16;93.80;99622.03;2569119;30;139029;-38
2021/11/02 08:54:36;;;;;;;5.25;1.55;;;8.60;99.90;;;7.10;94.26;99593.06;2572982;30;138169;-40
2021/11/02 08:57:04;;;;;;;5.70;1.90;;;8.70;99.90;;;7.28;94.08;99614.84;2567482;30;138266;-40
2021/11/02 08:59:33;;;;;;;6.53;1.60;;;8.70;99.90;;;7.33;94.44;99620.44;2568909;30;137703;-40
2021/11/02 09:02:10;;;;;;;5.90;1.83;;;8.80;99.90;;;7.41;94.27;99613.91;2565743;30;137779;-40
2021/11/02 09:04:47;;;;;;;6.50;1.45;;;8.80;99.90;;;7.50;93.94;99614.47;2567510;30;137430;-40
2021/11/02 09:07:28;;;;;;;4.10;1.65;;;8.90;99.90;;;7.52;91.70;99614.22;2568755;30;138430;-40
2021/11/02 09:09:59;;;;;;;3.67;1.80;;;9.00;99.90;;;7.60;92.47;99619.41;2567126;30;137240;-40
2021/11/02 09:12:32;;;;;;;4.80;1.80;;;9.00;99.90;;;7.69;92.00;99623.50;2568420;30;137100;-40
2021/11/02 09:15:03;;;;;;;5.30;1.88;;;9.10;99.90;;;7.71;92.18;99609.69;2566428;30;137036;-40
2021/11/02 09:17:33;;;;;;;5.28;1.92;;;9.10;99.90;;;7.76;92.24;99623.44;2567829;30;138183;-40
2021/11/02 09:20:04;;;;;;;8.50;2.03;;;9.20;99.90;;;7.73;91.56;99619.28;2567732;30;138156;-40
2021/11/02 09:22:32;;;;;;;4.70;1.80;;;9.20;99.90;;;7.68;91.12;99621.81;2568899;30;139413;-40
2021/11/02 09:25:00;;;;;;;5.90;1.63;;;9.20;99.90;;;7.69;91.76;99633.50;2568858;30;136797;-40
2021/11/02 09:27:29;;;;;;;5.18;1.90;;;9.20;99.90;;;7.67;92.00;99624.75;2565842;30;138394;-40
2021/11/02 09:29:58;;;;;;;6.63;2.10;;;9.10;99.90;;;7.63;91.40;99636.06;2567435;30;136959;-40
2021/11/02 09:32:27;;;;;;;5.90;1.77;;;9.10;99.90;;;7.60;90.77;99625.66;2569086;30;137296;-40
2021/11/02 09:34:54;;;;;;;4.05;1.58;;;9.10;99.90;;;7.61;91.23;99637.34;2569049;30;137702;-40
2021/11/02 09:37:36;;;;;;;5.25;2.00;;;9.10;99.90;;;7.66;90.32;99640.22;2568751;30;137043;-40
2021/11/02 09:40:28;;;;;;;5.30;1.70;;;9.20;99.90;;;7.70;90.74;99637.91;2568365;30;138292;-40
2021/11/02 09:43:54;;;;;;;4.63;2.40;;;9.20;99.90;;;7.85;91.36;99626.69;2567226;30;137549;-40
2021/11/02 09:46:56;;;;;;;3.30;1.50;;;9.30;99.90;;;7.90;91.92;99635.81;2566671;30;136812;-40
2021/11/02 09:49:44;;;;;;;5.20;1.80;;;9.40;99.90;;;7.99;91.46;99633.66;2566970;30;138338;-40
2021/11/02 09:52:47;;;;;;;4.18;1.75;;;9.40;99.90;;;8.00;91.79;99637.19;2568762;30;136779;-40
2021/11/02 09:55:26;;;;;;;5.28;1.85;;;9.40;99.90;;;8.11;92.88;99632.91;2568290;30;138434;-40
2021/11/02 09:58:37;;;;;;;5.45;2.15;;;9.50;99.90;;;8.16;94.10;99633.88;2568943;30;137620;-40
2021/11/02 10:01:29;;;;;;;6.35;2.00;;;9.50;99.90;;;8.18;93.46;99631.75;2568251;30;139350;-40
2021/11/02 10:04:09;;;;;;;5.30;2.00;;;9.60;99.90;;;8.27;94.81;99634.19;2568238;30;137392;-40
2021/11/02 10:07:04;;;;;;;5.22;2.00;;;9.60;99.90;;;8.29;93.92;99637.53;2567896;30;137328;-40
2021/11/02 10:10:25;;;;;;;5.47;1.90;;;9.70;99.90;;;8.35;93.58;99629.31;2567775;30;136900;-40
2021/11/02 10:13:20;;;;;;;4.40;1.75;;;9.80;99.90;;;8.44;93.83;99637.94;2568107;30;138200;-40
2021/11/02 10:16:14;;;;;;;5.60;2.20;;;9.80;99.90;;;8.47;92.68;99625.81;2566666;30;136834;-40
2021/11/02 10:19:25;;;;;;;6.40;1.90;;;9.80;99.90;;;8.46;92.96;99630.41;2567901;30;137366;-40
2021/11/02 10:22:14;;;;;;;6.20;2.15;;;9.90;99.90;;;8.52;92.48;99634.13;2566736;30;137269;-40
2021/11/02 10:25:19;;;;;;;5.70;1.77;;;9.90;99.90;;;8.56;92.20;99635.34;2567295;30;139078;-40
2021/11/02 10:28:19;;;;;;;5.57;1.65;;;9.90;99.90;;;8.67;92.89;99638.34;2568128;30;138195;-40
2021/11/02 10:30:57;;;;;;;5.88;1.90;;;10.00;99.90;;;8.74;92.20;99645.34;2567625;30;138143;-40
2021/11/02 10:33:37;;;;;;;3.97;1.77;;;10.10;99.90;;;8.83;91.22;99634.97;2567105;30;136793;-40
2021/11/02 10:36:42;;;;;;;4.93;1.80;;;10.20;99.90;;;8.81;90.00;99634.38;2567003;30;138791;-40
2021/11/02 10:40:14;;;;;;;6.03;1.77;;;10.20;99.90;;;8.89;89.54;99636.81;2567083;30;137662;-40
2021/11/02 10:43:01;;;;;;;4.15;1.60;;;10.20;99.90;;;8.79;89.93;99639.22;2566108;30;137639;-40
2021/11/02 10:45:34;;;;;;;3.60;1.60;;;10.20;99.90;;;8.84;90.56;99646.72;2567398;30;136682;-40
2021/11/02 10:48:10;;;;;;;5.03;1.73;;;10.20;99.90;;;8.76;90.63;99636.97;2567057;30;139954;-40
2021/11/02 10:50:48;;;;;;;6.10;2.03;;;10.20;99.90;;;8.64;91.36;99636.91;2567480;30;137033;-40
2021/11/02 10:53:38;;;;;;;5.25;2.40;;;10.10;99.90;;;8.59;91.32;99643.03;2566864;30;140873;-39
2021/11/02 10:56:41;;;;;;;5.72;2.03;;;10.10;99.90;;;8.56;92.44;99632.63;2567057;30;137921;-40
2021/11/02 10:59:15;;;;;;;5.03;2.58;;;10.00;99.90;;;8.54;92.82;99632.00;2565599;30;138187;-40
2021/11/02 11:01:46;;;;;;;6.07;2.22;;;10.00;99.90;;;8.56;93.92;99631.81;2567723;30;138529;-40
2021/11/02 11:04:21;;;;;;;6.13;2.70;;;10.00;99.90;;;8.58;95.07;99635.13;2567307;30;136998;-40
2021/11/02 11:06:55;;;;;;;5.25;2.40;;;10.00;99.90;;;8.64;95.72;99634.19;2568285;30;137636;-40
2021/11/02 11:09:23;;;;;;;6.03;2.58;;;10.00;99.90;;;8.59;95.63;99631.34;2567753;30;138199;-39
2021/11/02 11:11:58;;;;;;;6.72;2.67;;;10.00;99.90;;;8.58;96.38;99638.66;2565670;30;137075;-39
2021/11/02 11:14:32;;;;;;;5.78;2.33;;;10.00;99.90;;;8.59;97.33;99636.78;2568433;30;139263;-40
2021/11/02 11:17:00;;;;;;;5.53;2.38;;;10.00;99.90;;;8.51;97.30;99637.09;2569011;30;137227;-39
2021/11/02 11:20:05;;;;;;;5.95;2.28;;;10.00;99.90;;;8.55;98.57;99635.56;2567852;30;139038;-39
2021/11/02 11:22:47;;;;;;;5.13;2.22;;;10.00;99.90;;;8.56;98.43;99631.81;2566805;30;137535;-39
2021/11/02 11:25:31;;;;;;;5.05;2.30;;;10.00;99.90;;;8.58;98.81;99630.50;2568355;30;138398;-40
2021/11/02 11:28:02;;;;;;;3.95;2.30;;;10.00;99.90;;;8.54;98.59;99633.91;2567536;30;137465;-40
2021/11/02 11:30:36;;;;;;;4.80;2.42;;;10.00;99.90;;;8.59;98.87;99628.63;2568322;30;138401;-40
2021/11/02 11:33:12;;;;;;;4.45;2.38;;;10.00;99.90;;;8.55;98.87;99619.25;2566637;30;137274;-39
2021/11/02 11:35:41;;;;;;;4.93;2.50;;;10.00;99.90;;;8.63;99.09;99627.94;2567256;30;137899;-39
2021/11/02 11:38:13;;;;;;;4.50;1.98;;;10.00;99.90;;;8.62;98.90;99626.28;2568338;30;138562;-40
2021/11/02 11:40:44;;;;;;;4.93;2.13;;;10.00;99.90;;;8.52;98.43;99625.97;2567392;30;137073;-39
2021/11/02 11:43:15;;;;;;;4.13;2.00;;;10.00;99.90;;;8.52;99.04;99630.59;2568243;30;138353;-40
2021/11/02 11:45:46;;;;;;;4.65;1.90;;;10.00;99.90;;;8.51;99.56;99629.75;2568042;30;139603;-40
2021/11/02 11:48:24;;;;;;;6.07;2.30;;;9.90;99.90;;;8.46;99.46;99622.25;2566738;30;137321;-39
2021/11/02 11:51:02;;;;;;;6.05;2.03;;;9.90;99.90;;;8.46;99.04;99618.72;2568196;30;137056;-39
2021/11/02 11:53:36;;;;;;;3.70;1.77;;;9.90;99.90;;;8.32;98.73;99613.41;2566655;30;138654;-40
2021/11/02 11:56:08;;;;;;;4.53;1.85;;;9.80;99.90;;;8.32;99.18;99607.16;2568451;30;138467;-39
2021/11/02 11:58:51;;;;;;;4.47;2.20;;;9.80;99.90;;;8.20;99.89;99596.22;2567922;30;136631;-39
2021/11/02 12:01:38;;;;;;;6.70;2.50;;;9.70;99.90;;;8.18;100.00;99591.00;2568256;30;137360;-40
2021/11/02 12:04:41;;;;;;;3.88;2.20;;;9.70;99.90;;;8.24;100.00;99593.91;2564529;30;137514;-40
2021/11/02 12:07:43;;;;;;;4.13;1.75;;;9.70;99.90;;;8.37;100.00;99592.91;2567163;30;137350;-40
2021/11/02 12:10:12;;;;;;;6.07;2.70;;;9.80;99.90;;;8.43;100.00;99589.28;2568613;30;136687;-40
2021/11/02 12:12:45;;;;;;;4.22;2.47;;;9.80;99.90;;;8.51;100.00;99583.53;2568259;30;138321;-39
2021/11/02 12:15:17;;;;;;;4.25;2.22;;;9.90;99.90;;;8.65;100.00;99583.38;2566446;30;137383;-40
2021/11/02 12:17:50;;;;;;;4.43;2.35;;;10.00;99.90;;;8.66;99.91;99576.88;2567660;30;137130;-39
2021/11/02 12:20:21;;;;;;;6.40;2.50;;;10.00;99.90;;;8.70;100.00;99567.19;2569169;30;137605;-40
2021/11/02 12:22:56;;;;;;;6.90;2.40;;;10.10;99.90;;;8.82;100.00;99573.50;2568805;30;138330;-40
2021/11/02 12:25:32;;;;;;;5.18;2.28;;;10.10;99.90;;;9.04;100.00;99581.97;2567193;30;137148;-40
2021/11/02 12:28:01;;;;;;;5.65;2.45;;;10.30;99.90;;;9.14;100.00;99567.78;2567475;30;137892;-40
2021/11/02 12:30:28;;;;;;;3.95;2.28;;;10.40;99.90;;;9.15;99.15;99566.75;2565715;30;137909;-40
2021/11/02 12:32:57;;;;;;;6.72;2.30;;;10.50;99.90;;;9.14;98.83;99566.97;2568347;30;137196;-40
2021/11/02 12:35:38;;;;;;;4.43;2.38;;;10.50;99.90;;;9.10;98.65;99568.50;2568714;30;136910;-40
2021/11/02 12:38:07;;;;;;;5.32;2.15;;;10.50;99.90;;;9.09;98.61;99567.66;2567674;30;137843;-40
2021/11/02 12:40:41;;;;;;;3.17;2.13;;;10.50;99.90;;;9.08;97.92;99563.28;2568745;30;136582;-40
2021/11/02 12:43:30;;;;;;;7.38;2.40;;;10.40;99.90;;;9.16;98.30;99565.69;2568145;30;138284;-40
2021/11/02 12:46:03;;;;;;;5.35;2.17;;;10.50;99.90;;;9.24;98.97;99553.59;2568172;30;136742;-40
2021/11/02 12:48:33;;;;;;;9.35;2.70;;;10.60;99.90;;;9.31;97.34;99557.06;2568945;30;138238;-40
2021/11/02 12:51:22;;;;;;;4.97;2.47;;;10.60;99.90;;;9.46;98.28;99547.56;2568894;30;136811;-40
2021/11/02 12:53:56;;;;;;;4.63;2.40;;;10.70;99.90;;;9.55;96.79;99556.22;2566310;30;137288;-40
2021/11/02 12:56:28;;;;;;;6.10;2.63;;;10.80;99.90;;;9.55;96.15;99543.47;2568551;30;136970;-40
2021/11/02 12:59:26;;;;;;;6.47;2.90;;;10.90;99.90;;;9.68;97.09;99538.81;2568701;30;136852;-40
2021/11/02 13:01:59;;;;;;;5.03;2.67;;;10.90;99.90;;;9.78;95.79;99548.06;2567462;30;137083;-40
2021/11/02 13:04:35;;;;;;;7.00;2.78;;;11.00;99.90;;;9.75;95.35;99548.53;2568237;30;138320;-40
2021/11/02 13:07:13;;;;;;;5.35;2.40;;;11.10;99.90;;;9.74;93.86;99543.31;2568451;30;136862;-40
2021/11/02 13:09:43;;;;;;;6.67;2.70;;;11.10;99.90;;;9.68;93.61;99547.84;2567845;30;137564;-40
2021/11/02 13:12:12;;;;;;;5.35;2.70;;;11.10;99.90;;;9.67;94.06;99551.59;2566889;30;137546;-40
2021/11/02 13:14:44;;;;;;;5.13;2.40;;;11.00;99.90;;;9.71;93.50;99541.91;2565426;30;137369;-40
2021/11/02 13:17:16;;;;;;;6.22;2.50;;;11.10;99.90;;;9.75;92.56;99545.81;2568053;30;138292;-40
2021/11/02 13:19:47;;;;;;;7.25;2.38;;;11.10;99.90;;;9.84;94.06;99550.88;2568502;30;137343;-40
2021/11/02 13:22:23;;;;;;;5.72;2.42;;;11.10;99.90;;;9.90;93.41;99548.03;2568300;30;136970;-40
2021/11/02 13:25:22;;;;;;;5.43;2.10;;;11.20;99.90;;;9.92;91.12;99545.06;2566644;30;139179;-40
2021/11/02 13:27:56;;;;;;;4.97;2.17;;;11.30;99.90;;;9.91;89.99;99554.28;2565916;30;136614;-40
2021/11/02 13:30:40;;;;;;;2.90;1.80;;;11.30;99.90;;;9.84;91.57;99543.56;2566191;30;137406;-40
2021/11/02 13:33:15;;;;;;;5.10;2.28;;;11.20;99.90;;;9.73;89.79;99539.78;2565618;30;138606;-40
2021/11/02 13:36:01;;;;;;;3.88;1.85;;;11.20;99.90;;;9.54;89.82;99543.69;2567678;30;138115;-40
2021/11/02 13:38:36;;;;;;;4.43;1.77;;;11.00;99.90;;;9.45;91.22;99546.75;2565811;30;137348;-40
2021/11/02 13:41:18;;;;;;;4.97;1.77;;;10.90;99.90;;;9.39;92.45;99542.25;2568205;30;136996;-40
2021/11/02 13:43:49;;;;;;;3.92;2.00;;;10.80;99.90;;;9.34;92.88;99542.97;2569179;30;137108;-40
2021/11/02 13:46:21;;;;;;;3.42;1.90;;;10.80;99.90;;;9.30;93.58;99543.66;2567512;30;138248;-40
2021/11/02 13:48:50;;;;;;;4.63;2.10;;;10.70;99.90;;;9.33;94.17;99548.63;2567884;30;137381;-40
2021/11/02 13:51:22;;;;;;;6.07;2.55;;;10.70;99.90;;;9.40;94.91;99541.19;2567979;30;138242;-40
2021/11/02 13:53:50;;;;;;;4.78;2.15;;;10.80;99.90;;;9.40;94.76;99545.81;2567965;30;138189;-40
2021/11/02 13:56:44;;;;;;;3.55;1.85;;;10.80;99.90;;;9.32;93.13;99545.09;2568872;30;137952;-40
2021/11/02 13:59:14;;;;;;;4.43;1.83;;;10.80;99.90;;;9.31;90.99;99539.88;2568141;30;137503;-40
2021/11/02 14:01:47;;;;;;;4.32;2.00;;;10.80;99.90;;;9.36;93.06;99542.72;2567131;30;138264;-40
2021/11/02 14:04:35;;;;;;;4.43;2.10;;;10.80;99.90;;;9.37;91.82;99533.50;2567848;30;137398;-40
2021/11/02 14:07:18;;;;;;;4.30;2.03;;;10.80;99.90;;;9.34;93.09;99540.25;2568662;30;138509;-40
2021/11/02 14:09:58;;;;;;;4.68;2.25;;;10.80;99.90;;;9.37;93.64;99544.38;2567834;30;138177;-40
2021/11/02 14:12:33;;;;;;;4.13;2.25;;;10.80;99.90;;;9.44;93.99;99538.81;2568849;30;137876;-40
2021/11/02 14:15:12;;;;;;;5.35;1.90;;;10.80;99.90;;;9.52;94.83;99534.91;2566954;30;137132;-40
2021/11/02 14:17:44;;;;;;;4.38;2.00;;;10.90;99.90;;;9.50;94.04;99537.88;2567981;30;136830;-40
2021/11/02 14:20:32;;;;;;;4.50;2.25;;;10.90;99.90;;;9.47;93.30;99528.31;2568107;30;137422;-40
2021/11/02 14:23:02;;;;;;;5.32;1.98;;;10.90;99.90;;;9.53;93.55;99529.22;2568346;30;137250;-40
2021/11/02 14:25:41;;;;;;;3.95;1.75;;;10.90;99.90;;;9.51;92.06;99528.63;2568653;30;137009;-40
2021/11/02 14:28:10;;;;;;;2.85;1.60;;;10.90;99.90;;;9.51;93.02;99534.09;2566284;30;138207;-40
2021/11/02 14:30:45;;;;;;;3.00;1.50;;;10.90;99.90;;;9.49;92.45;99536.22;2568135;30;136965;-40
2021/11/02 14:33:45;;;;;;;3.75;1.58;;;10.90;99.90;;;9.41;92.99;99539.28;2566416;30;139215;-40
2021/11/02 14:36:14;;;;;;;2.65;1.35;;;10.90;99.90;;;9.30;92.67;99541.78;2566906;30;137751;-40
2021/11/02 14:38:47;;;;;;;3.47;1.70;;;10.80;99.90;;;9.23;93.41;99541.06;2565525;30;138396;-40
2021/11/02 14:41:32;;;;;;;3.60;1.75;;;10.70;99.90;;;9.16;93.12;99537.63;2567655;30;137376;-40
2021/11/02 14:44:18;;;;;;;3.38;1.70;;;10.70;99.90;;;9.17;92.59;99540.13;2566966;30;138991;-40
2021/11/02 14:47:12;;;;;;;3.10;1.50;;;10.70;99.90;;;9.09;93.31;99539.63;2568537;30;137399;-40
2021/11/02 14:49:41;;;;;;;6.35;1.70;;;10.60;99.90;;;9.04;93.68;99537.59;2567285;30;138098;-40
2021/11/02 14:52:11;;;;;;;3.95;1.83;;;10.60;99.90;;;8.96;93.69;99546.91;2566138;30;137951;-40
2021/11/02 14:54:45;;;;;;;5.22;2.08;;;10.50;99.90;;;8.92;94.55;99548.44;2566924;30;137399;-40
2021/11/02 14:57:18;;;;;;;3.15;1.95;;;10.40;99.90;;;8.79;94.71;99544.03;2574181;30;137069;-38
2021/11/02 15:00:04;;;;;;;3.97;1.77;;;10.40;99.90;;;8.81;95.33;99560.97;2568722;30;137495;-38
2021/11/02 15:02:39;;;;;;;3.17;1.70;;;10.30;99.90;;;8.69;95.42;99551.94;2572405;30;137306;-38
2021/11/02 15:05:18;;;;;;;4.60;1.90;;;10.30;99.90;;;8.74;96.00;99561.03;2568276;30;138353;-38
2021/11/02 15:07:48;;;;;;;4.53;1.85;;;10.30;99.90;;;8.66;97.25;99555.94;2566387;30;137295;-38
2021/11/02 15:10:20;;;;;;;3.63;1.70;;;10.20;99.90;;;8.61;98.07;99555.81;2569436;30;136987;-38
2021/11/02 15:12:49;;;;;;;4.82;2.03;;;10.20;99.90;;;8.58;98.77;99559.00;2569667;30;136864;-38
2021/11/02 15:15:18;;;;;;;5.25;1.95;;;10.10;99.90;;;8.57;99.44;99568.22;2569962;30;138210;-38
2021/11/02 15:17:51;;;;;;;4.95;1.50;;;10.10;99.90;;;8.51;98.49;99564.50;2568645;30;137453;-38
2021/11/02 15:20:27;;;;;;;3.65;1.45;;;10.10;99.90;;;8.40;99.84;99571.53;2568609;30;137385;-38
2021/11/02 15:22:59;;;;;;;2.60;1.30;;;10.00;99.90;;;8.37;99.54;99573.88;2567363;30;136761;-38
2021/11/02 15:25:27;;;;;;;4.00;1.65;;;9.90;99.90;;;8.37;99.87;99568.44;2568328;30;136672;-38
2021/11/02 15:28:01;;;;;;;4.28;1.42;;;9.90;99.90;;;8.40;100.00;99568.81;2568859;30;136735;-38
2021/11/02 15:30:30;;;;;;;3.15;1.20;;;9.90;99.90;;;8.36;99.99;99575.75;2569604;30;139325;-38
2021/11/02 15:32:57;;;;;;;4.13;1.00;;;9.90;99.90;;;8.26;99.65;99578.19;2567702;30;136697;-39
2021/11/02 15:35:27;;;;;;;1.30;0.75;;;9.80;99.90;;;8.16;99.54;99579.53;2568897;30;138319;-38
2021/11/02 15:37:59;;;;;;;3.63;0.80;;;9.70;99.90;;;8.13;100.00;99579.19;2569469;30;137016;-38
2021/11/02 15:40:41;;;;;;;2.08;0.70;;;9.70;99.90;;;8.01;99.82;99582.63;2569189;30;138188;-38
2021/11/02 15:43:13;;;;;;;6.10;0.75;;;9.60;99.90;;;7.91;100.00;99588.59;2570639;30;136764;-38
2021/11/02 15:45:47;;;;;;;1.83;0.82;;;9.50;99.90;;;7.88;100.00;99589.03;2567988;30;137544;-38
2021/11/02 15:48:22;;;;;;;3.55;0.70;;;9.50;99.90;;;7.85;100.00;99583.25;2568271;30;136800;-38
2021/11/02 15:50:54;;;;;;;2.13;0.70;;;9.40;99.90;;;7.80;100.00;99591.22;2569431;30;137525;-38
2021/11/02 15:53:26;;;;;;;5.30;1.00;;;9.40;99.90;;;7.77;100.00;99578.94;2568198;30;137328;-38